Time;durP1;ratioP1;P1;durP2;ratioP2;P2;SDS_P1;SDS_P2;PMS_P1;PMS_P2;Temp;Humidity;BMP_temperature;BMP_pressure;BME280_temperature;BME280_humidity;BME280_pressure;Samples;Min_cycle;Max_cycle;Signal;HPM_P1;HPM_P2
2023/07/16 00:00:30;;;;;;;;;;;;;;;22.89;59.12;101275.59;107602;1255;109496;-62
2023/07/16 00:03:19;;;;;;;;;;;;;;;22.89;59.25;101276.65;107630;1251;109851;-63
2023/07/16 00:05:51;;;;;;;;;;;;;;;22.89;58.75;101277.91;107554;1251;99176;-62
2023/07/16 00:08:19;;;;;;;;;;;;;;;22.90;58.71;101272.65;107586;1255;99159;-63
2023/07/16 00:10:47;;;;;;;;;;;;;;;22.91;58.64;101273.27;107582;1253;114359;-63
2023/07/16 00:13:15;;;;;;;;;;;;;;;22.91;58.71;101274.88;107641;1251;109206;-61
2023/07/16 00:15:43;;;;;;;;;;;;;;;22.91;59.02;101277.16;107586;1253;111142;-61
2023/07/16 00:18:12;;;;;;;;;;;;;;;22.89;59.55;101282.86;107620;1254;99182;-62
2023/07/16 00:20:40;;;;;;;;;;;;;;;22.86;59.44;101278.11;107627;1254;99250;-63
2023/07/16 00:23:08;;;;;;;;;;;;;;;22.85;59.49;101280.81;107620;1254;112074;-61
2023/07/16 00:25:36;;;;;;;;;;;;;;;22.85;59.70;101277.23;107627;1252;109801;-61
2023/07/16 00:28:05;;;;;;;;;;;;;;;22.82;59.93;101276.03;107580;1253;108090;-64
2023/07/16 00:30:33;;;;;;;;;;;;;;;22.81;59.77;101274.67;107564;1253;99304;-63
2023/07/16 00:33:01;;;;;;;;;;;;;;;22.80;59.38;101273.74;107689;1251;99160;-61
2023/07/16 00:35:30;;;;;;;;;;;;;;;22.75;59.20;101272.59;107578;1254;113501;-63
2023/07/16 00:37:58;;;;;;;;;;;;;;;22.73;60.14;101274.52;107563;1254;108599;-60
2023/07/16 00:40:26;;;;;;;;;;;;;;;22.71;59.87;101273.33;107609;1252;108277;-61
2023/07/16 00:42:55;;;;;;;;;;;;;;;22.69;60.08;101272.69;107629;1251;99154;-62
2023/07/16 00:45:23;;;;;;;;;;;;;;;22.69;60.07;101269.43;107708;1251;99432;-61
2023/07/16 00:47:52;;;;;;;;;;;;;;;22.68;60.39;101272.19;107590;1251;113260;-62
2023/07/16 00:50:20;;;;;;;;;;;;;;;22.67;60.72;101270.45;107615;1256;109251;-62
2023/07/16 00:52:49;;;;;;;;;;;;;;;22.67;60.46;101267.66;107618;1251;108511;-60
2023/07/16 00:55:18;;;;;;;;;;;;;;;22.69;60.15;101263.61;107611;1250;99240;-61
2023/07/16 00:57:47;;;;;;;;;;;;;;;22.70;60.04;101260.54;107654;1251;99216;-61
2023/07/16 01:00:15;;;;;;;;;;;;;;;22.69;60.03;101261.71;107654;1254;111417;-61
2023/07/16 01:02:43;;;;;;;;;;;;;;;22.68;60.10;101256.61;107587;1251;108806;-62
2023/07/16 01:05:11;;;;;;;;;;;;;;;22.67;59.93;101265.17;107595;1250;108995;-62
2023/07/16 01:07:42;;;;;;;;;;;;;;;22.65;60.06;101266.09;107546;1251;99160;-61
2023/07/16 01:10:11;;;;;;;;;;;;;;;22.66;59.81;101268.13;107626;1251;99076;-62
2023/07/16 01:12:39;;;;;;;;;;;;;;;22.67;60.15;101268.63;107584;1255;113425;-63
2023/07/16 01:15:07;;;;;;;;;;;;;;;22.66;60.40;101268.71;107590;1251;109715;-62
2023/07/16 01:17:35;;;;;;;;;;;;;;;22.66;60.06;101271.05;107571;1253;107516;-61
2023/07/16 01:20:05;;;;;;;;;;;;;;;22.64;60.42;101271.35;107531;1254;99284;-61
2023/07/16 01:22:33;;;;;;;;;;;;;;;22.63;60.70;101270.38;107664;1251;99184;-62
2023/07/16 01:25:01;;;;;;;;;;;;;;;22.62;60.89;101273.84;107595;1252;112176;-62
2023/07/16 01:27:48;;;;;;;;;;;;;;;22.60;61.16;101276.81;107578;1254;109315;-61
2023/07/16 01:30:18;;;;;;;;;;;;;;;22.56;60.90;101278.07;107575;1254;107639;-61
2023/07/16 01:32:46;;;;;;;;;;;;;;;22.54;60.96;101285.83;107524;1252;99182;-62
2023/07/16 01:35:15;;;;;;;;;;;;;;;22.52;61.49;101285.77;107582;1253;99253;-61
2023/07/16 01:37:43;;;;;;;;;;;;;;;22.49;61.88;101286.64;107595;1251;113604;-60
2023/07/16 01:40:12;;;;;;;;;;;;;;;22.49;61.81;101284.13;107590;1254;110830;-61
2023/07/16 01:42:41;;;;;;;;;;;;;;;22.49;61.59;101286.06;107634;1251;107640;-61
2023/07/16 01:45:10;;;;;;;;;;;;;;;22.49;61.40;101284.65;107579;1254;99180;-60
2023/07/16 01:47:41;;;;;;;;;;;;;;;22.49;61.60;101282.98;107585;1253;99295;-62
2023/07/16 01:50:11;;;;;;;;;;;;;;;22.49;61.21;101283.57;107577;1251;113275;-62
2023/07/16 01:52:39;;;;;;;;;;;;;;;22.47;61.60;101289.63;107609;1253;109933;-60
2023/07/16 01:55:08;;;;;;;;;;;;;;;22.45;61.48;101288.40;107561;1256;108178;-60
2023/07/16 01:57:36;;;;;;;;;;;;;;;22.43;61.23;101287.98;107586;1255;99266;-62
2023/07/16 02:00:05;;;;;;;;;;;;;;;22.42;61.41;101288.86;107614;1251;99150;-62
2023/07/16 02:02:46;;;;;;;;;;;;;;;22.41;61.93;101283.73;107542;1251;112988;-61
2023/07/16 02:05:15;;;;;;;;;;;;;;;22.40;61.67;101288.12;107576;1253;110246;-61
2023/07/16 02:07:44;;;;;;;;;;;;;;;22.39;61.81;101287.20;107551;1253;108206;-62
2023/07/16 02:10:12;;;;;;;;;;;;;;;22.41;61.91;101287.95;107583;1254;99165;-62
2023/07/16 02:12:40;;;;;;;;;;;;;;;22.42;61.86;101296.02;107591;1254;99064;-62
2023/07/16 02:15:08;;;;;;;;;;;;;;;22.44;62.12;101294.30;107630;1251;112321;-61
2023/07/16 02:17:36;;;;;;;;;;;;;;;22.45;62.03;101293.21;107617;1251;109052;-62
2023/07/16 02:20:06;;;;;;;;;;;;;;;22.46;61.46;101298.34;107601;1254;108852;-62
2023/07/16 02:22:35;;;;;;;;;;;;;;;22.48;60.89;101299.42;107660;1253;99243;-60
2023/07/16 02:25:04;;;;;;;;;;;;;;;22.50;61.07;101294.96;107643;1254;99221;-62
2023/07/16 02:27:32;;;;;;;;;;;;;;;22.51;61.41;101294.11;107521;1254;111935;-62
2023/07/16 02:30:01;;;;;;;;;;;;;;;22.51;61.83;101297.03;107633;1254;109062;-61
2023/07/16 02:32:29;;;;;;;;;;;;;;;22.50;61.51;101293.30;107609;1254;108148;-62
2023/07/16 02:34:57;;;;;;;;;;;;;;;22.46;61.77;101293.63;107569;1251;99679;-61
2023/07/16 02:37:26;;;;;;;;;;;;;;;22.41;62.28;101294.48;107628;1254;99179;-63
2023/07/16 02:39:54;;;;;;;;;;;;;;;22.28;62.75;101290.80;107593;1253;113267;-59
2023/07/16 02:42:23;;;;;;;;;;;;;;;22.20;62.39;101290.59;107375;1254;109408;-62
2023/07/16 02:44:52;;;;;;;;;;;;;;;22.14;62.72;101292.23;107568;1251;107379;-60
2023/07/16 02:47:20;;;;;;;;;;;;;;;22.09;62.84;101287.95;107611;1251;99167;-62
2023/07/16 02:49:54;;;;;;;;;;;;;;;22.05;62.89;101278.43;107609;1251;99144;-62
2023/07/16 02:52:22;;;;;;;;;;;;;;;22.02;62.89;101278.19;107560;1251;112851;-62
2023/07/16 02:54:50;;;;;;;;;;;;;;;21.99;63.55;101277.09;107661;1254;108440;-61
2023/07/16 02:57:21;;;;;;;;;;;;;;;21.96;63.72;101276.21;107634;1251;108907;-61
2023/07/16 02:59:49;;;;;;;;;;;;;;;21.92;63.20;101275.05;107590;1251;99192;-61
2023/07/16 03:02:17;;;;;;;;;;;;;;;21.86;63.00;101275.34;107506;1258;99100;-60
2023/07/16 03:04:45;;;;;;;;;;;;;;;21.83;63.29;101275.41;107567;1251;113067;-61
2023/07/16 03:07:14;;;;;;;;;;;;;;;21.81;63.62;101275.59;107583;1254;109723;-63
2023/07/16 03:09:44;;;;;;;;;;;;;;;21.79;63.97;101273.85;107647;1256;108116;-62
2023/07/16 03:12:13;;;;;;;;;;;;;;;21.77;63.40;101267.52;107597;1251;99098;-62
2023/07/16 03:14:41;;;;;;;;;;;;;;;21.75;63.45;101266.65;107627;1254;99172;-61
2023/07/16 03:17:09;;;;;;;;;;;;;;;21.71;63.64;101269.53;107603;1254;113760;-62
2023/07/16 03:19:38;;;;;;;;;;;;;;;21.68;63.91;101277.32;107623;1251;109154;-61
2023/07/16 03:22:06;;;;;;;;;;;;;;;21.66;64.07;101277.91;107565;1251;107991;-60
2023/07/16 03:24:35;;;;;;;;;;;;;;;21.63;64.42;101272.25;107593;1250;99269;-62
2023/07/16 03:27:03;;;;;;;;;;;;;;;21.62;64.35;101272.37;107595;1251;99077;-62
2023/07/16 03:29:46;;;;;;;;;;;;;;;21.57;64.99;101273.34;107615;1251;114381;-61
2023/07/16 03:32:15;;;;;;;;;;;;;;;21.51;64.72;101274.94;107588;1250;109495;-62
2023/07/16 03:34:43;;;;;;;;;;;;;;;21.49;64.64;101278.91;107582;1251;108212;-62
2023/07/16 03:37:12;;;;;;;;;;;;;;;21.49;65.39;101280.30;107559;1254;99153;-63
2023/07/16 03:39:44;;;;;;;;;;;;;;;21.49;65.28;101281.58;107588;1256;99090;-62
2023/07/16 03:42:12;;;;;;;;;;;;;;;21.48;65.02;101284.38;107628;1254;113456;-63
2023/07/16 03:44:45;;;;;;;;;;;;;;;21.48;65.10;101288.26;107605;1255;109800;-63
2023/07/16 03:47:14;;;;;;;;;;;;;;;21.51;65.22;101287.94;107553;1251;108100;-62
2023/07/16 03:49:43;;;;;;;;;;;;;;;21.54;64.85;101283.55;107643;1251;99166;-61
2023/07/16 03:52:11;;;;;;;;;;;;;;;21.56;65.31;101285.84;107554;1253;99151;-61
2023/07/16 03:54:40;;;;;;;;;;;;;;;21.58;64.87;101290.17;107603;1254;113213;-61
2023/07/16 03:57:14;;;;;;;;;;;;;;;21.61;64.99;101294.17;107615;1254;109962;-64
2023/07/16 03:59:45;;;;;;;;;;;;;;;21.65;64.81;101295.73;107549;1255;107986;-62
2023/07/16 04:02:13;;;;;;;;;;;;;;;21.68;64.83;101296.34;107545;1259;99096;-62
2023/07/16 04:04:42;;;;;;;;;;;;;;;21.71;64.33;101296.54;107623;1253;99195;-62
2023/07/16 04:07:11;;;;;;;;;;;;;;;21.74;63.97;101299.21;107547;1254;113501;-61
2023/07/16 04:09:39;;;;;;;;;;;;;;;21.77;63.63;101301.52;107597;1254;109178;-62
2023/07/16 04:12:07;;;;;;;;;;;;;;;21.78;63.68;101303.64;107528;1254;108564;-63
2023/07/16 04:14:36;;;;;;;;;;;;;;;21.77;63.26;101302.87;107616;1254;99182;-61
2023/07/16 04:17:04;;;;;;;;;;;;;;;21.77;63.01;101300.59;107555;1254;99188;-62
2023/07/16 04:19:33;;;;;;;;;;;;;;;21.72;62.98;101302.40;107648;1253;112883;-60
2023/07/16 04:22:02;;;;;;;;;;;;;;;21.70;62.76;101305.20;107636;1254;109014;-62
2023/07/16 04:24:30;;;;;;;;;;;;;;;21.69;62.78;101304.45;107618;1251;107988;-63
2023/07/16 04:26:58;;;;;;;;;;;;;;;21.70;62.77;101302.09;107615;1255;99019;-61
2023/07/16 04:29:26;;;;;;;;;;;;;;;21.71;62.78;101303.15;107598;1251;99079;-61
2023/07/16 04:31:55;;;;;;;;;;;;;;;21.74;62.73;101305.54;107674;1251;113047;-63
2023/07/16 04:34:23;;;;;;;;;;;;;;;21.77;62.81;101306.48;107527;1254;110167;-60
2023/07/16 04:36:51;;;;;;;;;;;;;;;21.81;62.66;101306.23;107558;1251;108562;-60
2023/07/16 04:39:19;;;;;;;;;;;;;;;21.84;62.53;101305.08;107545;1254;99263;-62
2023/07/16 04:41:48;;;;;;;;;;;;;;;21.87;62.67;101302.48;107592;1254;99061;-60
2023/07/16 04:44:19;;;;;;;;;;;;;;;21.90;62.54;101308.91;107639;1255;113145;-62
2023/07/16 04:46:47;;;;;;;;;;;;;;;21.95;62.42;101308.35;107616;1251;109370;-61
2023/07/16 04:49:16;;;;;;;;;;;;;;;21.99;62.41;101310.91;107643;1251;108288;-60
2023/07/16 04:51:44;;;;;;;;;;;;;;;22.01;62.30;101316.40;107620;1251;99203;-63
2023/07/16 04:54:12;;;;;;;;;;;;;;;22.04;62.27;101314.88;107590;1252;99042;-61
2023/07/16 04:56:40;;;;;;;;;;;;;;;22.09;62.27;101318.54;107624;1254;112968;-61
2023/07/16 04:59:08;;;;;;;;;;;;;;;22.11;61.88;101312.95;107555;1251;108639;-61
2023/07/16 05:01:36;;;;;;;;;;;;;;;22.14;61.89;101317.89;107648;1254;107690;-62
2023/07/16 05:04:05;;;;;;;;;;;;;;;22.16;61.68;101318.98;107600;1254;99295;-63
2023/07/16 05:06:34;;;;;;;;;;;;;;;22.20;61.63;101312.30;107600;1253;99363;-65
2023/07/16 05:09:05;;;;;;;;;;;;;;;22.23;61.59;101308.31;107618;1254;113780;-62
2023/07/16 05:11:34;;;;;;;;;;;;;;;22.30;61.40;101313.06;107624;1255;109915;-63
2023/07/16 05:14:02;;;;;;;;;;;;;;;22.35;61.18;101312.42;107635;1254;107827;-62
2023/07/16 05:16:30;;;;;;;;;;;;;;;22.40;60.82;101313.45;107637;1254;99221;-63
2023/07/16 05:18:58;;;;;;;;;;;;;;;22.44;60.84;101313.95;107677;1253;99246;-61
2023/07/16 05:21:27;;;;;;;;;;;;;;;22.48;60.55;101316.02;107706;1256;113585;-61
2023/07/16 05:23:55;;;;;;;;;;;;;;;22.52;60.29;101316.48;107612;1255;109712;-63
2023/07/16 05:26:23;;;;;;;;;;;;;;;22.57;60.08;101317.69;107587;1254;108728;-62
2023/07/16 05:28:51;;;;;;;;;;;;;;;22.63;59.99;101321.94;107647;1253;99185;-62
2023/07/16 05:31:19;;;;;;;;;;;;;;;22.68;59.66;101319.98;107667;1254;100024;-62
2023/07/16 05:33:48;;;;;;;;;;;;;;;22.73;59.44;101316.58;107650;1254;113985;-63
2023/07/16 05:36:23;;;;;;;;;;;;;;;22.80;59.58;101320.80;107573;1254;109655;-63
2023/07/16 05:38:54;;;;;;;;;;;;;;;22.86;59.44;101320.90;107547;1254;107436;-63
2023/07/16 05:41:22;;;;;;;;;;;;;;;22.92;59.26;101320.09;107513;1254;99260;-63
2023/07/16 05:43:52;;;;;;;;;;;;;;;23.01;58.68;101323.58;107627;1254;99033;-62
2023/07/16 05:46:23;;;;;;;;;;;;;;;23.06;58.52;101323.77;107593;1250;113277;-61
2023/07/16 05:48:51;;;;;;;;;;;;;;;23.14;58.44;101323.95;107529;1256;109700;-62
2023/07/16 05:51:20;;;;;;;;;;;;;;;23.21;58.33;101321.30;107555;1251;108958;-61
2023/07/16 05:53:48;;;;;;;;;;;;;;;23.27;58.18;101322.13;107587;1251;99175;-61
2023/07/16 05:56:16;;;;;;;;;;;;;;;23.33;58.10;101323.29;107644;1254;99041;-63
2023/07/16 05:58:44;;;;;;;;;;;;;;;23.39;58.04;101321.52;107596;1254;113467;-61
2023/07/16 06:01:13;;;;;;;;;;;;;;;23.45;57.84;101325.33;107634;1255;109639;-62
2023/07/16 06:03:41;;;;;;;;;;;;;;;23.52;57.78;101325.38;107654;1257;107518;-62
2023/07/16 06:06:09;;;;;;;;;;;;;;;23.58;57.35;101327.59;107612;1255;99157;-61
2023/07/16 06:08:37;;;;;;;;;;;;;;;23.67;56.78;101325.65;107621;1254;99170;-62
2023/07/16 06:11:06;;;;;;;;;;;;;;;23.74;56.83;101325.98;107597;1251;113662;-62
2023/07/16 06:13:34;;;;;;;;;;;;;;;23.82;56.63;101323.00;107612;1254;109727;-63
2023/07/16 06:16:02;;;;;;;;;;;;;;;23.88;56.28;101319.57;107575;1257;107979;-62
2023/07/16 06:18:31;;;;;;;;;;;;;;;23.94;55.86;101317.39;107592;1254;99268;-60
2023/07/16 06:20:59;;;;;;;;;;;;;;;24.07;54.60;101315.90;107627;1254;99064;-63
2023/07/16 06:23:27;;;;;;;;;;;;;;;24.17;54.06;101314.34;107554;1254;113450;-63
2023/07/16 06:25:55;;;;;;;;;;;;;;;24.28;53.70;101315.03;107591;1254;109789;-61
2023/07/16 06:28:24;;;;;;;;;;;;;;;24.39;53.23;101317.64;107618;1254;107724;-61
2023/07/16 06:30:52;;;;;;;;;;;;;;;24.50;52.86;101315.02;107575;1251;99194;-62
2023/07/16 06:33:20;;;;;;;;;;;;;;;24.57;52.69;101311.15;107531;1255;99175;-63
2023/07/16 06:35:48;;;;;;;;;;;;;;;24.66;52.82;101310.80;107538;1256;112711;-63
2023/07/16 06:38:17;;;;;;;;;;;;;;;24.76;52.61;101313.45;107525;1257;109054;-62
2023/07/16 06:40:47;;;;;;;;;;;;;;;24.84;51.75;101317.81;107487;1256;107974;-62
2023/07/16 06:43:15;;;;;;;;;;;;;;;24.93;51.07;101311.26;107544;1251;99173;-62
2023/07/16 06:45:43;;;;;;;;;;;;;;;25.01;50.53;101309.90;107618;1251;99352;-62
2023/07/16 06:48:12;;;;;;;;;;;;;;;25.08;50.17;101310.15;107622;1254;113246;-63
2023/07/16 06:50:41;;;;;;;;;;;;;;;25.16;49.48;101310.55;107652;1257;109443;-63
2023/07/16 06:53:09;;;;;;;;;;;;;;;25.25;48.80;101312.82;107574;1254;108215;-63
2023/07/16 06:55:37;;;;;;;;;;;;;;;25.36;47.73;101310.84;107574;1256;99053;-62
2023/07/16 06:58:09;;;;;;;;;;;;;;;25.47;47.49;101307.28;107555;1255;99844;-62
2023/07/16 07:00:44;;;;;;;;;;;;;;;25.56;47.98;101301.42;107611;1251;112835;-70
2023/07/16 07:03:13;;;;;;;;;;;;;;;25.65;48.12;101304.31;107582;1256;109511;-63
2023/07/16 07:05:42;;;;;;;;;;;;;;;25.74;47.88;101302.59;107514;1253;107352;-63
2023/07/16 07:08:10;;;;;;;;;;;;;;;25.83;48.00;101303.40;107601;1254;99156;-63
2023/07/16 07:10:39;;;;;;;;;;;;;;;25.90;47.19;101299.64;107613;1251;99074;-63
2023/07/16 07:13:08;;;;;;;;;;;;;;;26.01;47.37;101297.52;107681;1255;112395;-63
2023/07/16 07:15:36;;;;;;;;;;;;;;;26.11;47.63;101295.41;107540;1257;109682;-63
2023/07/16 07:18:04;;;;;;;;;;;;;;;26.19;47.54;101294.51;107518;1257;107738;-63
2023/07/16 07:20:32;;;;;;;;;;;;;;;26.29;47.35;101295.56;107629;1254;99181;-63
2023/07/16 07:23:02;;;;;;;;;;;;;;;26.38;47.42;101293.21;107568;1251;99067;-63
2023/07/16 07:25:31;;;;;;;;;;;;;;;26.48;46.82;101293.48;107541;1257;115901;-64
2023/07/16 07:28:02;;;;;;;;;;;;;;;26.58;46.53;101295.88;107618;1254;108421;-65
2023/07/16 07:30:30;;;;;;;;;;;;;;;26.70;46.49;101297.84;107570;1254;108538;-63
2023/07/16 07:32:58;;;;;;;;;;;;;;;26.80;46.65;101297.99;107634;1253;99354;-65
2023/07/16 07:35:27;;;;;;;;;;;;;;;26.89;46.14;101304.81;107658;1251;99438;-63
2023/07/16 07:37:56;;;;;;;;;;;;;;;26.98;45.33;101301.92;107639;1255;113527;-62
2023/07/16 07:40:26;;;;;;;;;;;;;;;27.10;44.86;101300.08;107597;1254;109311;-62
2023/07/16 07:42:54;;;;;;;;;;;;;;;27.19;45.04;101299.67;107587;1254;107318;-64
2023/07/16 07:45:23;;;;;;;;;;;;;;;27.31;44.35;101303.04;107552;1254;99259;-63
2023/07/16 07:47:52;;;;;;;;;;;;;;;27.41;44.06;101300.30;107578;1251;99224;-63
2023/07/16 07:50:20;;;;;;;;;;;;;;;27.50;43.53;101299.68;107623;1254;113262;-64
2023/07/16 07:52:49;;;;;;;;;;;;;;;27.61;42.93;101296.34;107659;1256;109289;-61
2023/07/16 07:55:17;;;;;;;;;;;;;;;27.68;42.96;101293.72;107549;1256;108234;-67
2023/07/16 07:57:53;;;;;;;;;;;;;;;27.79;43.44;101297.80;107618;1256;99047;-64
2023/07/16 08:00:22;;;;;;;;;;;;;;;27.90;42.71;101294.63;107574;1251;99174;-62
2023/07/16 08:02:50;;;;;;;;;;;;;;;28.00;42.45;101295.05;106876;1251;976274;-64
2023/07/16 08:05:19;;;;;;;;;;;;;;;28.10;42.65;101291.59;107562;1254;109614;-63
2023/07/16 08:07:47;;;;;;;;;;;;;;;28.20;42.11;101293.98;107589;1257;109114;-63
2023/07/16 08:10:15;;;;;;;;;;;;;;;28.32;41.95;101288.27;107724;1254;99182;-64
2023/07/16 08:12:44;;;;;;;;;;;;;;;28.45;42.09;101294.68;107653;1251;99044;-64
2023/07/16 08:15:15;;;;;;;;;;;;;;;28.56;41.41;101293.32;107631;1256;112982;-63
2023/07/16 08:17:44;;;;;;;;;;;;;;;28.68;40.65;101292.75;107509;1254;108931;-62
2023/07/16 08:20:12;;;;;;;;;;;;;;;28.81;40.39;101292.62;107517;1251;108625;-64
2023/07/16 08:22:40;;;;;;;;;;;;;;;28.92;40.18;101294.38;107487;1251;99165;-63
2023/07/16 08:25:10;;;;;;;;;;;;;;;29.02;39.64;101293.98;107542;1251;99061;-64
2023/07/16 08:27:38;;;;;;;;;;;;;;;29.15;39.48;101294.83;107588;1251;113495;-63
2023/07/16 08:30:07;;;;;;;;;;;;;;;29.25;39.65;101295.23;107638;1254;109357;-63
2023/07/16 08:32:35;;;;;;;;;;;;;;;29.33;39.35;101297.68;107596;1251;108387;-63
2023/07/16 08:35:06;;;;;;;;;;;;;;;29.43;39.52;101290.95;107621;1252;99839;-66
2023/07/16 08:37:36;;;;;;;;;;;;;;;29.56;39.31;101283.73;107585;1251;99233;-63
2023/07/16 08:40:05;;;;;;;;;;;;;;;29.68;38.32;101286.70;107616;1251;113127;-64
2023/07/16 08:42:33;;;;;;;;;;;;;;;29.78;37.65;101281.15;107577;1254;108900;-62
2023/07/16 08:45:01;;;;;;;;;;;;;;;29.89;37.90;101279.48;107591;1251;108368;-61
2023/07/16 08:47:29;;;;;;;;;;;;;;;30.00;36.74;101273.08;107596;1254;99178;-64
2023/07/16 08:49:58;;;;;;;;;;;;;;;30.08;36.98;101273.08;107639;1251;99079;-63
2023/07/16 08:52:27;;;;;;;;;;;;;;;30.19;36.61;101271.67;107586;1251;113164;-63
2023/07/16 08:54:55;;;;;;;;;;;;;;;30.28;36.04;101266.30;107517;1250;109685;-63
2023/07/16 08:57:23;;;;;;;;;;;;;;;30.41;35.80;101266.80;107528;1251;108712;-63
2023/07/16 08:59:52;;;;;;;;;;;;;;;30.58;35.85;101272.53;107477;1251;99157;-63
2023/07/16 09:02:21;;;;;;;;;;;;;;;30.78;34.06;101269.66;107566;1254;99319;-63
2023/07/16 09:04:50;;;;;;;;;;;;;;;30.98;33.85;101264.33;107595;1251;112442;-63
2023/07/16 09:07:19;;;;;;;;;;;;;;;31.20;33.15;101260.85;107704;1254;109725;-62
2023/07/16 09:09:58;;;;;;;;;;;;;;;31.45;32.20;101262.12;107601;1255;107140;-63
2023/07/16 09:12:27;;;;;;;;;;;;;;;31.73;32.59;101265.48;107541;1256;99158;-63
2023/07/16 09:14:55;;;;;;;;;;;;;;;32.02;32.64;101267.16;107670;1251;99307;-63
2023/07/16 09:17:24;;;;;;;;;;;;;;;32.30;31.43;101268.96;107541;1251;112750;-63
2023/07/16 09:19:53;;;;;;;;;;;;;;;32.38;31.29;101266.39;107529;1251;109304;-62
2023/07/16 09:22:22;;;;;;;;;;;;;;;32.42;32.01;101261.11;107488;1254;109288;-61
2023/07/16 09:24:50;;;;;;;;;;;;;;;32.51;31.45;101256.64;107516;1251;99191;-60
2023/07/16 09:27:19;;;;;;;;;;;;;;;32.55;31.36;101250.64;107588;1251;99145;-62
2023/07/16 09:29:47;;;;;;;;;;;;;;;32.79;30.87;101253.56;107531;1251;112007;-60
2023/07/16 09:32:19;;;;;;;;;;;;;;;33.08;30.31;101253.75;107655;1251;109663;-61
2023/07/16 09:34:50;;;;;;;;;;;;;;;33.23;30.75;101254.60;107514;1251;108463;-62
2023/07/16 09:37:19;;;;;;;;;;;;;;;33.34;29.38;101251.45;107576;1251;99175;-62
2023/07/16 09:39:48;;;;;;;;;;;;;;;33.49;28.71;101251.28;107504;1251;99067;-62
2023/07/16 09:42:18;;;;;;;;;;;;;;;33.65;28.97;101246.92;107460;1254;113250;-64
2023/07/16 09:44:48;;;;;;;;;;;;;;;33.92;28.95;101240.19;107513;1251;110123;-62
2023/07/16 09:47:16;;;;;;;;;;;;;;;34.24;28.66;101243.01;107505;1254;108284;-61
2023/07/16 09:49:45;;;;;;;;;;;;;;;34.51;28.45;101239.68;107521;1251;99166;-62
2023/07/16 09:52:14;;;;;;;;;;;;;;;34.85;27.60;101237.42;107573;1254;99057;-62
2023/07/16 09:54:45;;;;;;;;;;;;;;;35.33;27.02;101236.86;107611;1254;112813;-63
2023/07/16 09:57:14;;;;;;;;;;;;;;;35.73;26.00;101241.27;107617;1254;108253;-62
2023/07/16 09:59:43;;;;;;;;;;;;;;;36.08;25.68;101243.54;107637;1253;107397;-62
2023/07/16 10:02:11;;;;;;;;;;;;;;;36.47;25.18;101240.66;107621;1251;99131;-62
2023/07/16 10:04:40;;;;;;;;;;;;;;;36.87;24.42;101235.61;107606;1254;99185;-61
2023/07/16 10:07:23;;;;;;;;;;;;;;;37.15;24.00;101228.59;107594;1251;113633;-63
2023/07/16 10:09:56;;;;;;;;;;;;;;;37.39;23.68;101226.79;107620;1254;109542;-61
2023/07/16 10:12:25;;;;;;;;;;;;;;;37.57;23.40;101234.67;107608;1254;108880;-63
2023/07/16 10:14:58;;;;;;;;;;;;;;;37.74;22.85;101227.68;107589;1254;99172;-63
2023/07/16 10:17:26;;;;;;;;;;;;;;;37.87;23.58;101236.55;107606;1251;99184;-64
2023/07/16 10:20:07;;;;;;;;;;;;;;;37.60;22.90;101238.48;107630;1253;113187;-63
2023/07/16 10:22:37;;;;;;;;;;;;;;;37.60;23.52;101233.44;107578;1250;108264;-63
2023/07/16 10:25:17;;;;;;;;;;;;;;;38.26;23.17;101227.02;107553;1251;108101;-62
2023/07/16 10:27:46;;;;;;;;;;;;;;;38.95;22.23;101226.71;107481;1251;99172;-63
2023/07/16 10:30:15;;;;;;;;;;;;;;;39.40;21.61;101234.95;107581;1251;99160;-62
2023/07/16 10:32:44;;;;;;;;;;;;;;;39.79;21.99;101231.39;107525;1254;114161;-63
2023/07/16 10:35:12;;;;;;;;;;;;;;;40.08;21.97;101224.66;107590;1254;110062;-61
2023/07/16 10:37:42;;;;;;;;;;;;;;;40.51;21.54;101223.02;107541;1257;108172;-62
2023/07/16 10:40:11;;;;;;;;;;;;;;;40.76;20.53;101220.95;107603;1255;99854;-62
2023/07/16 10:42:43;;;;;;;;;;;;;;;40.86;20.66;101222.41;107591;1251;99066;-63
2023/07/16 10:45:12;;;;;;;;;;;;;;;41.15;20.66;101211.61;107522;1251;113398;-62
2023/07/16 10:47:51;;;;;;;;;;;;;;;41.31;20.71;101202.17;107641;1251;109811;-61
2023/07/16 10:50:21;;;;;;;;;;;;;;;41.58;20.35;101200.92;107632;1254;107593;-61
2023/07/16 10:52:53;;;;;;;;;;;;;;;41.74;19.81;101199.33;107573;1251;99186;-62
2023/07/16 10:55:22;;;;;;;;;;;;;;;41.93;20.37;101195.04;107517;1251;99169;-62
2023/07/16 10:57:50;;;;;;;;;;;;;;;42.26;19.75;101196.45;107560;1254;113563;-62
2023/07/16 11:00:19;;;;;;;;;;;;;;;42.27;18.41;101204.74;107618;1251;109775;-60
2023/07/16 11:02:49;;;;;;;;;;;;;;;42.14;19.25;101204.63;107605;1251;108698;-64
2023/07/16 11:05:21;;;;;;;;;;;;;;;42.45;19.40;101203.90;107555;1251;99170;-62
2023/07/16 11:07:49;;;;;;;;;;;;;;;42.85;19.37;101197.77;107547;1251;99179;-63
2023/07/16 11:10:23;;;;;;;;;;;;;;;43.26;19.76;101191.55;107628;1255;112997;-64
2023/07/16 11:12:52;;;;;;;;;;;;;;;43.69;18.78;101185.54;107625;1254;109148;-62
2023/07/16 11:15:34;;;;;;;;;;;;;;;43.93;18.47;101183.80;107604;1251;108603;-62
2023/07/16 11:18:02;;;;;;;;;;;;;;;44.24;17.48;101181.52;107639;1251;99067;-62
2023/07/16 11:20:31;;;;;;;;;;;;;;;44.21;17.39;101190.14;107589;1252;99131;-63
2023/07/16 11:23:00;;;;;;;;;;;;;;;44.15;17.84;101181.30;107573;1251;113486;-63
2023/07/16 11:25:29;;;;;;;;;;;;;;;44.43;17.82;101178.66;107602;1251;109046;-61
2023/07/16 11:27:57;;;;;;;;;;;;;;;44.75;17.62;101169.46;107535;1254;107888;-64
2023/07/16 11:30:27;;;;;;;;;;;;;;;45.11;17.23;101171.21;107584;1251;99254;-64
2023/07/16 11:32:57;;;;;;;;;;;;;;;45.03;17.29;101168.45;107620;1251;99154;-63
2023/07/16 11:35:29;;;;;;;;;;;;;;;44.86;16.94;101161.05;107568;1254;112859;-68
2023/07/16 11:37:58;;;;;;;;;;;;;;;44.75;17.45;101162.27;107543;1254;108793;-63
2023/07/16 11:40:26;;;;;;;;;;;;;;;45.05;17.06;101160.35;107487;1251;108951;-64
2023/07/16 11:42:55;;;;;;;;;;;;;;;45.27;16.88;101156.07;107590;1254;99213;-61
2023/07/16 11:45:26;;;;;;;;;;;;;;;45.45;16.56;101154.01;107636;1253;99185;-61
2023/07/16 11:47:54;;;;;;;;;;;;;;;45.60;16.86;101153.02;107656;1254;113608;-62
2023/07/16 11:50:23;;;;;;;;;;;;;;;45.92;16.61;101147.30;107636;1254;108982;-62
2023/07/16 11:52:53;;;;;;;;;;;;;;;46.22;16.24;101140.00;107548;1251;107866;-62
2023/07/16 11:55:31;;;;;;;;;;;;;;;46.55;15.92;101131.29;107499;1251;99169;-62
2023/07/16 11:58:02;;;;;;;;;;;;;;;46.81;15.58;101144.91;107537;1250;99080;-61
2023/07/16 12:00:31;;;;;;;;;;;;;;;47.03;15.69;101142.40;107640;1254;112611;-62
2023/07/16 12:02:59;;;;;;;;;;;;;;;47.25;15.39;101142.56;107602;1251;109228;-62
2023/07/16 12:05:28;;;;;;;;;;;;;;;47.32;15.12;101133.89;107480;1250;108609;-65
2023/07/16 12:08:20;;;;;;;;;;;;;;;47.71;15.10;101123.86;107563;1251;99159;-64
2023/07/16 12:10:54;;;;;;;;;;;;;;;47.82;14.85;101122.96;107484;1251;99238;-63
2023/07/16 12:13:22;;;;;;;;;;;;;;;47.95;14.58;101121.96;107472;1251;112820;-63
2023/07/16 12:15:50;;;;;;;;;;;;;;;48.11;14.49;101113.11;107623;1251;109820;-61
2023/07/16 12:18:18;;;;;;;;;;;;;;;48.44;14.54;101113.78;107515;1251;107698;-61
2023/07/16 12:20:47;;;;;;;;;;;;;;;48.54;14.02;101109.49;107632;1253;99179;-63
2023/07/16 12:23:15;;;;;;;;;;;;;;;48.57;14.52;101105.47;107706;1251;99041;-62
2023/07/16 12:25:43;;;;;;;;;;;;;;;48.49;14.16;101112.05;107597;1253;112731;-63
2023/07/16 12:28:12;;;;;;;;;;;;;;;48.46;14.31;101107.94;107666;1254;109215;-62
2023/07/16 12:30:40;;;;;;;;;;;;;;;48.50;14.31;101106.11;107616;1254;107269;-62